sensor_id;sensor_type;location;lat;lon;timestamp;temperature;humidity
16827;DHT22;8530;49.540;8.576;2023-08-20T00:00:23;24.80;88.50
16827;DHT22;8530;49.540;8.576;2023-08-20T00:02:54;24.80;88.60
16827;DHT22;8530;49.540;8.576;2023-08-20T00:05:24;24.80;88.60
16827;DHT22;8530;49.540;8.576;2023-08-20T00:07:51;24.70;88.60
16827;DHT22;8530;49.540;8.576;2023-08-20T00:10:18;24.70;88.70
16827;DHT22;8530;49.540;8.576;2023-08-20T00:12:45;24.70;88.80
16827;DHT22;8530;49.540;8.576;2023-08-20T00:15:11;24.70;88.80
16827;DHT22;8530;49.540;8.576;2023-08-20T00:17:41;24.60;88.80
16827;DHT22;8530;49.540;8.576;2023-08-20T00:20:09;24.60;88.90
16827;DHT22;8530;49.540;8.576;2023-08-20T00:22:38;24.60;89.00
16827;DHT22;8530;49.540;8.576;2023-08-20T00:25:06;24.60;89.10
16827;DHT22;8530;49.540;8.576;2023-08-20T00:27:34;24.50;89.20
16827;DHT22;8530;49.540;8.576;2023-08-20T00:30:01;24.50;89.20
16827;DHT22;8530;49.540;8.576;2023-08-20T00:32:28;24.50;89.40
16827;DHT22;8530;49.540;8.576;2023-08-20T00:34:56;24.40;89.50
16827;DHT22;8530;49.540;8.576;2023-08-20T00:37:23;24.30;89.60
16827;DHT22;8530;49.540;8.576;2023-08-20T00:39:49;24.30;89.80
16827;DHT22;8530;49.540;8.576;2023-08-20T00:42:16;24.20;89.90
16827;DHT22;8530;49.540;8.576;2023-08-20T00:44:43;24.20;90.00
16827;DHT22;8530;49.540;8.576;2023-08-20T00:47:10;24.20;90.10
16827;DHT22;8530;49.540;8.576;2023-08-20T00:49:39;24.10;90.10
16827;DHT22;8530;49.540;8.576;2023-08-20T00:52:08;24.10;90.20
16827;DHT22;8530;49.540;8.576;2023-08-20T00:54:35;24.10;90.40
16827;DHT22;8530;49.540;8.576;2023-08-20T00:57:02;24.00;90.40
16827;DHT22;8530;49.540;8.576;2023-08-20T00:59:30;24.00;90.50
16827;DHT22;8530;49.540;8.576;2023-08-20T01:01:58;24.00;90.60
16827;DHT22;8530;49.540;8.576;2023-08-20T01:04:24;24.00;90.60
16827;DHT22;8530;49.540;8.576;2023-08-20T01:06:58;23.90;90.70
16827;DHT22;8530;49.540;8.576;2023-08-20T01:09:37;23.90;90.80
16827;DHT22;8530;49.540;8.576;2023-08-20T01:12:09;23.90;90.90
16827;DHT22;8530;49.540;8.576;2023-08-20T01:14:36;23.90;91.00
16827;DHT22;8530;49.540;8.576;2023-08-20T01:17:03;23.90;91.10
16827;DHT22;8530;49.540;8.576;2023-08-20T01:19:31;23.90;91.20
16827;DHT22;8530;49.540;8.576;2023-08-20T01:22:21;23.80;91.30
16827;DHT22;8530;49.540;8.576;2023-08-20T01:25:04;23.80;91.50
16827;DHT22;8530;49.540;8.576;2023-08-20T01:27:43;23.70;91.50
16827;DHT22;8530;49.540;8.576;2023-08-20T01:30:14;23.70;91.60
16827;DHT22;8530;49.540;8.576;2023-08-20T01:32:42;23.70;91.70
16827;DHT22;8530;49.540;8.576;2023-08-20T01:35:12;23.60;91.80
16827;DHT22;8530;49.540;8.576;2023-08-20T01:37:39;23.60;91.90
16827;DHT22;8530;49.540;8.576;2023-08-20T01:40:07;23.60;92.00
16827;DHT22;8530;49.540;8.576;2023-08-20T01:42:36;23.50;92.00
16827;DHT22;8530;49.540;8.576;2023-08-20T01:45:06;23.50;92.20
16827;DHT22;8530;49.540;8.576;2023-08-20T01:47:34;23.50;92.40
16827;DHT22;8530;49.540;8.576;2023-08-20T01:50:01;23.50;92.50
16827;DHT22;8530;49.540;8.576;2023-08-20T01:52:28;23.50;92.60
16827;DHT22;8530;49.540;8.576;2023-08-20T01:54:55;23.40;92.70
16827;DHT22;8530;49.540;8.576;2023-08-20T01:57:21;23.40;92.80
16827;DHT22;8530;49.540;8.576;2023-08-20T01:59:48;23.40;92.90
16827;DHT22;8530;49.540;8.576;2023-08-20T02:02:15;23.40;93.00
16827;DHT22;8530;49.540;8.576;2023-08-20T02:04:43;23.40;93.10
16827;DHT22;8530;49.540;8.576;2023-08-20T02:07:09;23.40;93.20
16827;DHT22;8530;49.540;8.576;2023-08-20T02:09:36;23.30;93.20
16827;DHT22;8530;49.540;8.576;2023-08-20T02:12:04;23.30;93.30
16827;DHT22;8530;49.540;8.576;2023-08-20T02:14:31;23.20;93.30
16827;DHT22;8530;49.540;8.576;2023-08-20T02:17:00;23.20;93.50
16827;DHT22;8530;49.540;8.576;2023-08-20T02:19:26;23.20;93.50
16827;DHT22;8530;49.540;8.576;2023-08-20T02:21:55;23.20;93.60
16827;DHT22;8530;49.540;8.576;2023-08-20T02:24:21;23.20;93.70
16827;DHT22;8530;49.540;8.576;2023-08-20T02:26:48;23.20;93.80
16827;DHT22;8530;49.540;8.576;2023-08-20T02:29:15;23.10;93.80
16827;DHT22;8530;49.540;8.576;2023-08-20T02:31:42;23.10;93.90
16827;DHT22;8530;49.540;8.576;2023-08-20T02:34:08;23.10;94.00
16827;DHT22;8530;49.540;8.576;2023-08-20T02:36:35;23.10;94.20
16827;DHT22;8530;49.540;8.576;2023-08-20T02:39:03;23.10;94.30
16827;DHT22;8530;49.540;8.576;2023-08-20T02:41:33;23.10;94.40
16827;DHT22;8530;49.540;8.576;2023-08-20T02:43:59;23.10;94.50
16827;DHT22;8530;49.540;8.576;2023-08-20T02:46:26;23.10;94.70
16827;DHT22;8530;49.540;8.576;2023-08-20T02:48:53;23.00;94.70
16827;DHT22;8530;49.540;8.576;2023-08-20T02:51:20;23.00;94.80
16827;DHT22;8530;49.540;8.576;2023-08-20T02:53:46;23.00;94.90
16827;DHT22;8530;49.540;8.576;2023-08-20T02:56:14;23.00;95.00
16827;DHT22;8530;49.540;8.576;2023-08-20T02:58:41;22.90;95.10
16827;DHT22;8530;49.540;8.576;2023-08-20T03:01:17;22.90;95.40
16827;DHT22;8530;49.540;8.576;2023-08-20T03:03:44;22.80;95.30
16827;DHT22;8530;49.540;8.576;2023-08-20T03:06:11;22.80;95.30
16827;DHT22;8530;49.540;8.576;2023-08-20T03:08:38;22.80;95.50
16827;DHT22;8530;49.540;8.576;2023-08-20T03:11:04;22.70;95.50
16827;DHT22;8530;49.540;8.576;2023-08-20T03:13:32;22.70;95.60
16827;DHT22;8530;49.540;8.576;2023-08-20T03:15:59;22.60;95.70
16827;DHT22;8530;49.540;8.576;2023-08-20T03:18:26;22.60;95.80
16827;DHT22;8530;49.540;8.576;2023-08-20T03:20:54;22.50;95.90
16827;DHT22;8530;49.540;8.576;2023-08-20T03:23:21;22.50;96.00
16827;DHT22;8530;49.540;8.576;2023-08-20T03:25:47;22.50;96.10
16827;DHT22;8530;49.540;8.576;2023-08-20T03:28:14;22.50;96.20
16827;DHT22;8530;49.540;8.576;2023-08-20T03:30:42;22.40;96.30
16827;DHT22;8530;49.540;8.576;2023-08-20T03:33:09;22.40;96.30
16827;DHT22;8530;49.540;8.576;2023-08-20T03:35:35;22.40;96.40
16827;DHT22;8530;49.540;8.576;2023-08-20T03:38:02;22.40;96.50
16827;DHT22;8530;49.540;8.576;2023-08-20T03:40:29;22.40;96.60
16827;DHT22;8530;49.540;8.576;2023-08-20T03:42:56;22.30;96.60
16827;DHT22;8530;49.540;8.576;2023-08-20T03:45:22;22.30;96.70
16827;DHT22;8530;49.540;8.576;2023-08-20T03:47:51;22.30;96.80
16827;DHT22;8530;49.540;8.576;2023-08-20T03:50:17;22.30;96.90
16827;DHT22;8530;49.540;8.576;2023-08-20T03:52:44;22.30;96.90
16827;DHT22;8530;49.540;8.576;2023-08-20T03:55:11;22.30;97.00
16827;DHT22;8530;49.540;8.576;2023-08-20T03:57:37;22.30;97.00
16827;DHT22;8530;49.540;8.576;2023-08-20T04:00:05;22.30;97.10
16827;DHT22;8530;49.540;8.576;2023-08-20T04:02:35;22.30;97.20
16827;DHT22;8530;49.540;8.576;2023-08-20T04:05:03;22.30;97.30
16827;DHT22;8530;49.540;8.576;2023-08-20T04:07:30;22.20;97.30
16827;DHT22;8530;49.540;8.576;2023-08-20T04:09:56;22.20;97.30
16827;DHT22;8530;49.540;8.576;2023-08-20T04:12:23;22.20;97.40
16827;DHT22;8530;49.540;8.576;2023-08-20T04:14:50;22.20;97.50
16827;DHT22;8530;49.540;8.576;2023-08-20T04:17:17;22.20;97.60
16827;DHT22;8530;49.540;8.576;2023-08-20T04:19:44;22.20;97.60
16827;DHT22;8530;49.540;8.576;2023-08-20T04:22:12;22.20;97.70
16827;DHT22;8530;49.540;8.576;2023-08-20T04:24:39;22.20;97.80
16827;DHT22;8530;49.540;8.576;2023-08-20T04:27:05;22.20;97.80
16827;DHT22;8530;49.540;8.576;2023-08-20T04:29:33;22.20;97.90
16827;DHT22;8530;49.540;8.576;2023-08-20T04:31:59;22.20;98.00
16827;DHT22;8530;49.540;8.576;2023-08-20T04:34:26;22.30;98.00
16827;DHT22;8530;49.540;8.576;2023-08-20T04:36:53;22.30;98.00
16827;DHT22;8530;49.540;8.576;2023-08-20T04:39:21;22.30;98.00
16827;DHT22;8530;49.540;8.576;2023-08-20T04:41:47;22.40;98.10
16827;DHT22;8530;49.540;8.576;2023-08-20T04:44:14;22.40;98.10
16827;DHT22;8530;49.540;8.576;2023-08-20T04:46:41;22.40;98.10
16827;DHT22;8530;49.540;8.576;2023-08-20T04:49:08;22.40;98.10
16827;DHT22;8530;49.540;8.576;2023-08-20T04:51:35;22.40;98.10
16827;DHT22;8530;49.540;8.576;2023-08-20T04:57:25;22.50;98.10
16827;DHT22;8530;49.540;8.576;2023-08-20T04:59:52;22.50;98.00
16827;DHT22;8530;49.540;8.576;2023-08-20T05:02:19;22.50;98.00
16827;DHT22;8530;49.540;8.576;2023-08-20T05:04:46;22.60;98.10
16827;DHT22;8530;49.540;8.576;2023-08-20T05:07:13;22.60;98.10
16827;DHT22;8530;49.540;8.576;2023-08-20T05:09:42;22.70;98.10
16827;DHT22;8530;49.540;8.576;2023-08-20T05:12:09;22.80;98.00
16827;DHT22;8530;49.540;8.576;2023-08-20T05:14:40;22.90;98.00
16827;DHT22;8530;49.540;8.576;2023-08-20T05:17:07;23.00;98.00
16827;DHT22;8530;49.540;8.576;2023-08-20T05:19:34;23.10;98.00
16827;DHT22;8530;49.540;8.576;2023-08-20T05:22:01;23.30;98.00
16827;DHT22;8530;49.540;8.576;2023-08-20T05:24:27;23.40;97.90
16827;DHT22;8530;49.540;8.576;2023-08-20T05:27:05;23.50;97.80
16827;DHT22;8530;49.540;8.576;2023-08-20T05:29:32;23.70;97.70
16827;DHT22;8530;49.540;8.576;2023-08-20T05:32:01;23.70;97.50
16827;DHT22;8530;49.540;8.576;2023-08-20T05:34:27;23.90;97.40
16827;DHT22;8530;49.540;8.576;2023-08-20T05:36:54;23.90;97.30
16827;DHT22;8530;49.540;8.576;2023-08-20T05:39:21;24.00;97.20
16827;DHT22;8530;49.540;8.576;2023-08-20T05:41:48;24.00;97.10
16827;DHT22;8530;49.540;8.576;2023-08-20T05:44:15;24.10;97.10
16827;DHT22;8530;49.540;8.576;2023-08-20T05:46:43;24.10;97.00
16827;DHT22;8530;49.540;8.576;2023-08-20T05:49:12;24.20;96.90
16827;DHT22;8530;49.540;8.576;2023-08-20T05:51:39;24.20;96.80
16827;DHT22;8530;49.540;8.576;2023-08-20T05:54:06;24.20;96.80
16827;DHT22;8530;49.540;8.576;2023-08-20T05:56:32;24.30;96.70
16827;DHT22;8530;49.540;8.576;2023-08-20T05:58:59;24.50;96.70
16827;DHT22;8530;49.540;8.576;2023-08-20T06:01:26;24.60;96.60
16827;DHT22;8530;49.540;8.576;2023-08-20T06:03:52;24.70;96.40
16827;DHT22;8530;49.540;8.576;2023-08-20T06:06:21;24.80;96.30
16827;DHT22;8530;49.540;8.576;2023-08-20T06:08:47;24.90;96.20
16827;DHT22;8530;49.540;8.576;2023-08-20T06:11:14;25.10;96.00
16827;DHT22;8530;49.540;8.576;2023-08-20T06:13:41;25.30;95.80
16827;DHT22;8530;49.540;8.576;2023-08-20T06:16:10;25.60;95.60
16827;DHT22;8530;49.540;8.576;2023-08-20T06:18:37;26.00;95.40
16827;DHT22;8530;49.540;8.576;2023-08-20T06:21:04;26.60;95.40
16827;DHT22;8530;49.540;8.576;2023-08-20T06:23:32;28.20;95.60
16827;DHT22;8530;49.540;8.576;2023-08-20T06:25:59;30.60;94.10
16827;DHT22;8530;49.540;8.576;2023-08-20T06:28:26;32.70;91.70
16827;DHT22;8530;49.540;8.576;2023-08-20T06:30:52;33.70;86.20
16827;DHT22;8530;49.540;8.576;2023-08-20T06:33:19;34.40;79.60
16827;DHT22;8530;49.540;8.576;2023-08-20T06:35:46;35.20;73.70
16827;DHT22;8530;49.540;8.576;2023-08-20T06:38:13;36.50;68.20
16827;DHT22;8530;49.540;8.576;2023-08-20T06:40:41;37.70;61.50
16827;DHT22;8530;49.540;8.576;2023-08-20T06:43:08;38.50;55.40
16827;DHT22;8530;49.540;8.576;2023-08-20T06:45:34;38.40;51.60
16827;DHT22;8530;49.540;8.576;2023-08-20T06:48:01;38.90;49.00
16827;DHT22;8530;49.540;8.576;2023-08-20T06:50:28;38.90;46.90
16827;DHT22;8530;49.540;8.576;2023-08-20T06:52:55;38.30;44.80
16827;DHT22;8530;49.540;8.576;2023-08-20T06:55:24;38.60;44.30
16827;DHT22;8530;49.540;8.576;2023-08-20T06:57:52;38.90;42.90
16827;DHT22;8530;49.540;8.576;2023-08-20T07:00:19;38.10;41.70
16827;DHT22;8530;49.540;8.576;2023-08-20T07:02:45;36.90;41.20
16827;DHT22;8530;49.540;8.576;2023-08-20T07:05:12;35.70;41.40
16827;DHT22;8530;49.540;8.576;2023-08-20T07:07:40;34.40;42.20
16827;DHT22;8530;49.540;8.576;2023-08-20T07:10:07;33.50;43.50
16827;DHT22;8530;49.540;8.576;2023-08-20T07:12:34;33.00;45.10
16827;DHT22;8530;49.540;8.576;2023-08-20T07:15:02;33.40;46.40
16827;DHT22;8530;49.540;8.576;2023-08-20T07:17:29;34.90;47.10
16827;DHT22;8530;49.540;8.576;2023-08-20T07:19:56;36.70;46.60
16827;DHT22;8530;49.540;8.576;2023-08-20T07:22:22;38.50;44.70
16827;DHT22;8530;49.540;8.576;2023-08-20T07:24:49;39.80;41.90
16827;DHT22;8530;49.540;8.576;2023-08-20T07:27:16;39.80;40.30
16827;DHT22;8530;49.540;8.576;2023-08-20T07:29:42;38.80;38.50
16827;DHT22;8530;49.540;8.576;2023-08-20T07:32:10;37.50;38.20
16827;DHT22;8530;49.540;8.576;2023-08-20T07:34:37;36.90;39.60
16827;DHT22;8530;49.540;8.576;2023-08-20T07:37:04;38.30;40.50
16827;DHT22;8530;49.540;8.576;2023-08-20T07:39:31;40.10;39.50
16827;DHT22;8530;49.540;8.576;2023-08-20T07:41:58;42.00;37.60
16827;DHT22;8530;49.540;8.576;2023-08-20T07:44:25;43.50;35.50
16827;DHT22;8530;49.540;8.576;2023-08-20T07:46:53;44.70;33.10
16827;DHT22;8530;49.540;8.576;2023-08-20T07:49:21;45.90;30.70
16827;DHT22;8530;49.540;8.576;2023-08-20T07:51:48;46.30;29.20
16827;DHT22;8530;49.540;8.576;2023-08-20T07:54:17;46.70;28.60
16827;DHT22;8530;49.540;8.576;2023-08-20T07:56:44;47.60;27.50
16827;DHT22;8530;49.540;8.576;2023-08-20T07:59:11;48.50;26.30
16827;DHT22;8530;49.540;8.576;2023-08-20T08:01:37;49.40;25.30
16827;DHT22;8530;49.540;8.576;2023-08-20T08:04:04;50.20;24.40
16827;DHT22;8530;49.540;8.576;2023-08-20T08:06:33;50.50;23.70
16827;DHT22;8530;49.540;8.576;2023-08-20T08:09:17;50.30;23.60
16827;DHT22;8530;49.540;8.576;2023-08-20T08:11:44;50.10;22.60
16827;DHT22;8530;49.540;8.576;2023-08-20T08:14:14;49.90;22.50
16827;DHT22;8530;49.540;8.576;2023-08-20T08:16:40;49.70;22.10
16827;DHT22;8530;49.540;8.576;2023-08-20T08:19:07;49.40;22.10
16827;DHT22;8530;49.540;8.576;2023-08-20T08:21:35;49.40;21.80
16827;DHT22;8530;49.540;8.576;2023-08-20T08:24:02;49.60;21.60
16827;DHT22;8530;49.540;8.576;2023-08-20T08:26:29;49.60;21.30
16827;DHT22;8530;49.540;8.576;2023-08-20T08:28:56;49.50;21.00
16827;DHT22;8530;49.540;8.576;2023-08-20T08:31:23;49.30;20.80
16827;DHT22;8530;49.540;8.576;2023-08-20T08:33:50;48.60;20.80
16827;DHT22;8530;49.540;8.576;2023-08-20T08:36:17;47.10;20.80
16827;DHT22;8530;49.540;8.576;2023-08-20T08:38:46;45.40;21.30
16827;DHT22;8530;49.540;8.576;2023-08-20T08:41:13;43.90;22.30
16827;DHT22;8530;49.540;8.576;2023-08-20T08:43:41;42.40;23.00
16827;DHT22;8530;49.540;8.576;2023-08-20T08:46:12;41.30;24.00
16827;DHT22;8530;49.540;8.576;2023-08-20T08:48:40;40.00;25.20
16827;DHT22;8530;49.540;8.576;2023-08-20T08:51:07;38.70;26.30
16827;DHT22;8530;49.540;8.576;2023-08-20T08:53:35;37.70;27.50
16827;DHT22;8530;49.540;8.576;2023-08-20T08:56:03;36.80;28.80
16827;DHT22;8530;49.540;8.576;2023-08-20T08:58:31;36.00;30.00
16827;DHT22;8530;49.540;8.576;2023-08-20T09:00:59;35.60;31.00
16827;DHT22;8530;49.540;8.576;2023-08-20T09:03:25;35.20;32.00
16827;DHT22;8530;49.540;8.576;2023-08-20T09:05:55;34.80;32.90
16827;DHT22;8530;49.540;8.576;2023-08-20T09:08:23;34.50;33.90
16827;DHT22;8530;49.540;8.576;2023-08-20T09:10:54;34.40;34.80
16827;DHT22;8530;49.540;8.576;2023-08-20T09:13:32;34.10;35.60
16827;DHT22;8530;49.540;8.576;2023-08-20T09:15:59;34.00;36.50
16827;DHT22;8530;49.540;8.576;2023-08-20T09:18:26;34.00;37.00
16827;DHT22;8530;49.540;8.576;2023-08-20T09:20:53;33.90;37.40
16827;DHT22;8530;49.540;8.576;2023-08-20T09:23:19;33.70;38.00
16827;DHT22;8530;49.540;8.576;2023-08-20T09:25:46;33.50;38.60
16827;DHT22;8530;49.540;8.576;2023-08-20T09:28:14;33.30;39.10
16827;DHT22;8530;49.540;8.576;2023-08-20T09:30:54;33.20;39.40
16827;DHT22;8530;49.540;8.576;2023-08-20T09:33:21;33.10;40.00
16827;DHT22;8530;49.540;8.576;2023-08-20T09:35:49;33.10;40.10
16827;DHT22;8530;49.540;8.576;2023-08-20T09:38:19;33.20;40.40
16827;DHT22;8530;49.540;8.576;2023-08-20T09:40:48;33.10;40.70
16827;DHT22;8530;49.540;8.576;2023-08-20T09:43:16;33.20;40.90
16827;DHT22;8530;49.540;8.576;2023-08-20T09:45:46;33.10;41.10
16827;DHT22;8530;49.540;8.576;2023-08-20T09:48:17;33.10;41.50
16827;DHT22;8530;49.540;8.576;2023-08-20T09:50:46;33.00;41.60
16827;DHT22;8530;49.540;8.576;2023-08-20T09:53:19;33.10;42.00
16827;DHT22;8530;49.540;8.576;2023-08-20T09:55:50;33.10;42.00
16827;DHT22;8530;49.540;8.576;2023-08-20T09:58:17;33.10;42.10
16827;DHT22;8530;49.540;8.576;2023-08-20T10:00:49;33.20;42.40
16827;DHT22;8530;49.540;8.576;2023-08-20T10:03:18;33.20;42.60
16827;DHT22;8530;49.540;8.576;2023-08-20T10:05:46;33.30;42.70
16827;DHT22;8530;49.540;8.576;2023-08-20T10:08:15;33.30;42.70
16827;DHT22;8530;49.540;8.576;2023-08-20T10:10:42;33.30;42.70
16827;DHT22;8530;49.540;8.576;2023-08-20T10:13:09;33.40;42.70
16827;DHT22;8530;49.540;8.576;2023-08-20T10:15:36;33.50;42.60
16827;DHT22;8530;49.540;8.576;2023-08-20T10:18:07;33.50;42.70
16827;DHT22;8530;49.540;8.576;2023-08-20T10:20:34;33.50;42.70
16827;DHT22;8530;49.540;8.576;2023-08-20T10:23:02;33.50;42.80
16827;DHT22;8530;49.540;8.576;2023-08-20T10:25:30;33.40;42.90
16827;DHT22;8530;49.540;8.576;2023-08-20T10:28:12;33.50;43.00
16827;DHT22;8530;49.540;8.576;2023-08-20T10:31:03;33.50;43.10
16827;DHT22;8530;49.540;8.576;2023-08-20T10:33:31;33.60;43.10
16827;DHT22;8530;49.540;8.576;2023-08-20T10:36:07;33.60;42.90
16827;DHT22;8530;49.540;8.576;2023-08-20T10:38:36;33.60;42.80
16827;DHT22;8530;49.540;8.576;2023-08-20T10:41:06;33.70;42.70
16827;DHT22;8530;49.540;8.576;2023-08-20T10:43:34;33.60;42.60
16827;DHT22;8530;49.540;8.576;2023-08-20T10:46:13;33.70;42.60
16827;DHT22;8530;49.540;8.576;2023-08-20T10:48:47;33.80;42.40
16827;DHT22;8530;49.540;8.576;2023-08-20T10:51:15;33.90;42.20
16827;DHT22;8530;49.540;8.576;2023-08-20T10:53:43;34.00;42.00
16827;DHT22;8530;49.540;8.576;2023-08-20T10:56:15;34.10;41.80
16827;DHT22;8530;49.540;8.576;2023-08-20T10:58:44;34.20;41.40
16827;DHT22;8530;49.540;8.576;2023-08-20T11:01:18;34.20;41.10
16827;DHT22;8530;49.540;8.576;2023-08-20T11:03:48;34.20;41.00
16827;DHT22;8530;49.540;8.576;2023-08-20T11:06:15;34.20;40.90
16827;DHT22;8530;49.540;8.576;2023-08-20T11:08:42;34.20;40.50
16827;DHT22;8530;49.540;8.576;2023-08-20T11:11:09;34.30;40.20
16827;DHT22;8530;49.540;8.576;2023-08-20T11:13:37;34.30;40.20
16827;DHT22;8530;49.540;8.576;2023-08-20T11:16:05;34.40;40.20
16827;DHT22;8530;49.540;8.576;2023-08-20T11:18:33;34.50;40.00
16827;DHT22;8530;49.540;8.576;2023-08-20T11:21:01;34.60;39.70
16827;DHT22;8530;49.540;8.576;2023-08-20T11:23:28;34.50;38.90
16827;DHT22;8530;49.540;8.576;2023-08-20T11:25:56;34.50;38.90
16827;DHT22;8530;49.540;8.576;2023-08-20T11:28:24;34.60;39.00
16827;DHT22;8530;49.540;8.576;2023-08-20T11:30:51;34.60;39.10
16827;DHT22;8530;49.540;8.576;2023-08-20T11:33:17;34.70;39.10
16827;DHT22;8530;49.540;8.576;2023-08-20T11:35:44;34.90;39.10
16827;DHT22;8530;49.540;8.576;2023-08-20T11:38:13;35.00;39.10
16827;DHT22;8530;49.540;8.576;2023-08-20T11:40:40;35.20;39.10
16827;DHT22;8530;49.540;8.576;2023-08-20T11:43:07;35.20;38.70
16827;DHT22;8530;49.540;8.576;2023-08-20T11:45:44;35.30;38.70
16827;DHT22;8530;49.540;8.576;2023-08-20T11:48:11;35.30;38.60
16827;DHT22;8530;49.540;8.576;2023-08-20T11:50:38;35.20;38.50
16827;DHT22;8530;49.540;8.576;2023-08-20T11:53:06;35.00;38.40
16827;DHT22;8530;49.540;8.576;2023-08-20T11:55:34;34.80;38.50
16827;DHT22;8530;49.540;8.576;2023-08-20T11:58:01;34.80;38.70
16827;DHT22;8530;49.540;8.576;2023-08-20T12:00:30;34.90;38.70
16827;DHT22;8530;49.540;8.576;2023-08-20T12:02:58;35.10;38.80
16827;DHT22;8530;49.540;8.576;2023-08-20T12:05:27;35.20;38.90
16827;DHT22;8530;49.540;8.576;2023-08-20T12:07:58;35.20;38.00
16827;DHT22;8530;49.540;8.576;2023-08-20T12:10:26;35.20;37.80
16827;DHT22;8530;49.540;8.576;2023-08-20T12:12:54;35.20;37.20
16827;DHT22;8530;49.540;8.576;2023-08-20T12:15:22;35.10;36.90
16827;DHT22;8530;49.540;8.576;2023-08-20T12:17:59;35.20;36.80
16827;DHT22;8530;49.540;8.576;2023-08-20T12:20:28;35.10;36.40
16827;DHT22;8530;49.540;8.576;2023-08-20T12:22:58;35.10;36.60
16827;DHT22;8530;49.540;8.576;2023-08-20T12:25:25;35.10;36.50
16827;DHT22;8530;49.540;8.576;2023-08-20T12:27:53;35.20;36.40
16827;DHT22;8530;49.540;8.576;2023-08-20T12:30:20;35.20;36.40
16827;DHT22;8530;49.540;8.576;2023-08-20T12:32:47;35.30;36.40
16827;DHT22;8530;49.540;8.576;2023-08-20T12:35:13;35.30;36.50
16827;DHT22;8530;49.540;8.576;2023-08-20T12:37:40;35.40;36.40
16827;DHT22;8530;49.540;8.576;2023-08-20T12:40:08;35.30;36.50
16827;DHT22;8530;49.540;8.576;2023-08-20T12:42:36;35.30;36.60
16827;DHT22;8530;49.540;8.576;2023-08-20T12:45:05;35.40;36.60
16827;DHT22;8530;49.540;8.576;2023-08-20T12:47:32;35.40;36.60
16827;DHT22;8530;49.540;8.576;2023-08-20T12:49:59;35.40;36.50
16827;DHT22;8530;49.540;8.576;2023-08-20T12:52:26;35.40;36.40
16827;DHT22;8530;49.540;8.576;2023-08-20T12:54:52;35.40;37.00
16827;DHT22;8530;49.540;8.576;2023-08-20T12:57:19;35.40;36.50
16827;DHT22;8530;49.540;8.576;2023-08-20T12:59:46;35.50;36.30
16827;DHT22;8530;49.540;8.576;2023-08-20T13:02:14;35.60;36.30
16827;DHT22;8530;49.540;8.576;2023-08-20T13:04:41;35.60;36.10
16827;DHT22;8530;49.540;8.576;2023-08-20T13:07:08;35.50;36.10
16827;DHT22;8530;49.540;8.576;2023-08-20T13:09:36;35.50;36.20
16827;DHT22;8530;49.540;8.576;2023-08-20T13:12:03;35.50;35.90
16827;DHT22;8530;49.540;8.576;2023-08-20T13:14:35;35.40;35.60
16827;DHT22;8530;49.540;8.576;2023-08-20T13:17:02;35.40;35.50
16827;DHT22;8530;49.540;8.576;2023-08-20T13:19:30;35.40;35.50
16827;DHT22;8530;49.540;8.576;2023-08-20T13:21:57;35.40;35.20
16827;DHT22;8530;49.540;8.576;2023-08-20T13:24:23;35.40;35.30
16827;DHT22;8530;49.540;8.576;2023-08-20T13:26:51;35.40;35.40
16827;DHT22;8530;49.540;8.576;2023-08-20T13:29:18;35.30;35.50
16827;DHT22;8530;49.540;8.576;2023-08-20T13:31:47;35.30;35.40
16827;DHT22;8530;49.540;8.576;2023-08-20T13:34:13;35.30;35.30
16827;DHT22;8530;49.540;8.576;2023-08-20T13:36:41;35.30;35.40
16827;DHT22;8530;49.540;8.576;2023-08-20T13:39:08;35.40;35.20
16827;DHT22;8530;49.540;8.576;2023-08-20T13:41:38;35.40;35.10
16827;DHT22;8530;49.540;8.576;2023-08-20T13:44:06;35.30;34.90
16827;DHT22;8530;49.540;8.576;2023-08-20T13:46:33;35.30;35.10
16827;DHT22;8530;49.540;8.576;2023-08-20T13:48:59;35.30;35.20
16827;DHT22;8530;49.540;8.576;2023-08-20T13:51:26;35.30;35.20
16827;DHT22;8530;49.540;8.576;2023-08-20T13:53:54;35.30;35.30
16827;DHT22;8530;49.540;8.576;2023-08-20T13:56:21;35.20;35.30
16827;DHT22;8530;49.540;8.576;2023-08-20T13:58:48;35.20;35.30
16827;DHT22;8530;49.540;8.576;2023-08-20T14:01:15;35.30;35.30
16827;DHT22;8530;49.540;8.576;2023-08-20T14:03:41;35.30;35.30
16827;DHT22;8530;49.540;8.576;2023-08-20T14:06:08;35.30;35.20
16827;DHT22;8530;49.540;8.576;2023-08-20T14:08:35;35.20;35.00
16827;DHT22;8530;49.540;8.576;2023-08-20T14:11:03;35.20;35.10
16827;DHT22;8530;49.540;8.576;2023-08-20T14:13:29;35.10;35.10
16827;DHT22;8530;49.540;8.576;2023-08-20T14:15:57;35.10;35.10
16827;DHT22;8530;49.540;8.576;2023-08-20T14:18:23;35.10;35.20
16827;DHT22;8530;49.540;8.576;2023-08-20T14:20:51;35.10;35.10
16827;DHT22;8530;49.540;8.576;2023-08-20T14:23:18;35.10;35.10
16827;DHT22;8530;49.540;8.576;2023-08-20T14:25:44;35.10;35.00
16827;DHT22;8530;49.540;8.576;2023-08-20T14:28:13;35.10;34.90
16827;DHT22;8530;49.540;8.576;2023-08-20T14:30:39;35.10;34.90
16827;DHT22;8530;49.540;8.576;2023-08-20T14:33:06;35.00;35.00
16827;DHT22;8530;49.540;8.576;2023-08-20T14:35:33;35.00;35.10
16827;DHT22;8530;49.540;8.576;2023-08-20T14:38:00;35.00;35.00
16827;DHT22;8530;49.540;8.576;2023-08-20T14:40:26;35.00;35.30
16827;DHT22;8530;49.540;8.576;2023-08-20T14:42:53;35.00;35.20
16827;DHT22;8530;49.540;8.576;2023-08-20T14:45:21;35.00;35.20
16827;DHT22;8530;49.540;8.576;2023-08-20T14:47:48;34.90;35.30
16827;DHT22;8530;49.540;8.576;2023-08-20T14:50:15;35.00;35.40
16827;DHT22;8530;49.540;8.576;2023-08-20T14:52:41;34.90;35.30
16827;DHT22;8530;49.540;8.576;2023-08-20T14:55:08;34.90;35.60
16827;DHT22;8530;49.540;8.576;2023-08-20T14:57:35;34.70;35.50
16827;DHT22;8530;49.540;8.576;2023-08-20T15:00:04;34.70;35.80
16827;DHT22;8530;49.540;8.576;2023-08-20T15:02:35;34.70;35.80
16827;DHT22;8530;49.540;8.576;2023-08-20T15:05:02;34.70;35.80
16827;DHT22;8530;49.540;8.576;2023-08-20T15:07:29;34.80;35.80
16827;DHT22;8530;49.540;8.576;2023-08-20T15:09:55;34.80;35.90
16827;DHT22;8530;49.540;8.576;2023-08-20T15:12:22;34.70;35.90
16827;DHT22;8530;49.540;8.576;2023-08-20T15:14:49;34.70;36.00
16827;DHT22;8530;49.540;8.576;2023-08-20T15:17:17;34.70;35.90
16827;DHT22;8530;49.540;8.576;2023-08-20T15:19:45;34.70;35.80
16827;DHT22;8530;49.540;8.576;2023-08-20T15:22:13;34.70;35.90
16827;DHT22;8530;49.540;8.576;2023-08-20T15:24:40;34.70;36.00
16827;DHT22;8530;49.540;8.576;2023-08-20T15:27:07;34.70;35.90
16827;DHT22;8530;49.540;8.576;2023-08-20T15:29:34;34.70;36.00
16827;DHT22;8530;49.540;8.576;2023-08-20T15:32:00;34.70;36.00
16827;DHT22;8530;49.540;8.576;2023-08-20T15:34:30;34.70;35.90
16827;DHT22;8530;49.540;8.576;2023-08-20T15:36:58;34.70;35.90
16827;DHT22;8530;49.540;8.576;2023-08-20T15:39:25;34.70;35.90
16827;DHT22;8530;49.540;8.576;2023-08-20T15:41:52;34.70;35.80
16827;DHT22;8530;49.540;8.576;2023-08-20T15:44:19;34.70;35.80
16827;DHT22;8530;49.540;8.576;2023-08-20T15:46:46;34.70;35.90
16827;DHT22;8530;49.540;8.576;2023-08-20T15:49:12;34.70;35.70
16827;DHT22;8530;49.540;8.576;2023-08-20T15:51:39;34.70;35.60